sensor_id;sensor_type;location;lat;lon;timestamp;pressure;altitude;pressure_sealevel;temperature;humidity
65832;BME280;52593;42.648;23.332;2022-12-15T00:02:00;93719.16;;;-0.04;100.00
65832;BME280;52593;42.648;23.332;2022-12-15T00:04:45;93687.50;;;-0.12;100.00
65832;BME280;52593;42.648;23.332;2022-12-15T00:07:29;93694.53;;;-0.12;100.00
65832;BME280;52593;42.648;23.332;2022-12-15T00:10:13;93701.16;;;-0.08;100.00
65832;BME280;52593;42.648;23.332;2022-12-15T00:12:57;93713.16;;;0.33;100.00
65832;BME280;52593;42.648;23.332;2022-12-15T00:15:41;93713.09;;;-0.04;100.00
65832;BME280;52593;42.648;23.332;2022-12-15T00:18:25;93726.94;;;0.08;100.00
65832;BME280;52593;42.648;23.332;2022-12-15T00:21:09;93734.53;;;0.01;100.00
65832;BME280;52593;42.648;23.332;2022-12-15T00:23:53;93750.47;;;-0.10;100.00
65832;BME280;52593;42.648;23.332;2022-12-15T00:26:37;93758.34;;;-0.30;100.00
65832;BME280;52593;42.648;23.332;2022-12-15T00:29:21;93791.97;;;-0.14;100.00
65832;BME280;52593;42.648;23.332;2022-12-15T00:32:04;93804.25;;;-0.34;100.00
65832;BME280;52593;42.648;23.332;2022-12-15T00:34:48;93791.69;;;-0.30;100.00
65832;BME280;52593;42.648;23.332;2022-12-15T00:37:32;93797.22;;;-0.24;100.00
65832;BME280;52593;42.648;23.332;2022-12-15T00:40:16;93779.09;;;-0.17;100.00
65832;BME280;52593;42.648;23.332;2022-12-15T00:42:42;93776.88;;;-0.02;100.00
65832;BME280;52593;42.648;23.332;2022-12-15T00:45:07;93769.00;;;0.08;100.00
65832;BME280;52593;42.648;23.332;2022-12-15T00:47:33;93751.13;;;0.11;100.00
65832;BME280;52593;42.648;23.332;2022-12-15T00:49:58;93743.81;;;0.05;100.00
65832;BME280;52593;42.648;23.332;2022-12-15T00:52:42;93742.28;;;0.12;100.00
65832;BME280;52593;42.648;23.332;2022-12-15T00:55:27;93734.50;;;0.21;100.00
65832;BME280;52593;42.648;23.332;2022-12-15T00:58:10;93733.25;;;0.25;100.00
65832;BME280;52593;42.648;23.332;2022-12-15T01:00:54;93723.97;;;0.21;100.00
65832;BME280;52593;42.648;23.332;2022-12-15T01:03:38;93735.72;;;0.36;100.00
65832;BME280;52593;42.648;23.332;2022-12-15T01:06:22;93727.72;;;0.28;100.00
65832;BME280;52593;42.648;23.332;2022-12-15T01:09:08;93729.94;;;0.32;100.00
65832;BME280;52593;42.648;23.332;2022-12-15T01:11:53;93714.97;;;0.33;100.00
65832;BME280;52593;42.648;23.332;2022-12-15T01:14:37;93696.44;;;0.15;100.00
65832;BME280;52593;42.648;23.332;2022-12-15T01:17:21;93697.53;;;0.22;100.00
65832;BME280;52593;42.648;23.332;2022-12-15T01:20:05;93698.38;;;0.13;100.00
65832;BME280;52593;42.648;23.332;2022-12-15T01:22:48;93702.69;;;0.14;100.00
65832;BME280;52593;42.648;23.332;2022-12-15T01:25:15;93698.09;;;0.16;100.00
65832;BME280;52593;42.648;23.332;2022-12-15T01:27:42;93705.28;;;0.24;100.00
65832;BME280;52593;42.648;23.332;2022-12-15T01:30:09;93685.38;;;0.11;100.00
65832;BME280;52593;42.648;23.332;2022-12-15T01:32:36;93701.13;;;0.21;100.00
65832;BME280;52593;42.648;23.332;2022-12-15T01:35:03;93708.38;;;0.09;100.00
65832;BME280;52593;42.648;23.332;2022-12-15T01:37:28;93733.69;;;0.20;100.00
65832;BME280;52593;42.648;23.332;2022-12-15T01:39:53;93722.47;;;0.28;100.00
65832;BME280;52593;42.648;23.332;2022-12-15T01:42:37;93726.44;;;0.32;100.00
65832;BME280;52593;42.648;23.332;2022-12-15T01:47:56;93698.22;;;0.24;100.00
65832;BME280;52593;42.648;23.332;2022-12-15T01:50:23;93669.13;;;0.26;100.00
65832;BME280;52593;42.648;23.332;2022-12-15T01:52:50;93695.88;;;0.21;100.00
65832;BME280;52593;42.648;23.332;2022-12-15T01:55:18;93683.34;;;0.43;100.00
65832;BME280;52593;42.648;23.332;2022-12-15T01:57:45;93685.00;;;0.44;100.00
65832;BME280;52593;42.648;23.332;2022-12-15T02:00:12;93672.38;;;0.47;100.00
65832;BME280;52593;42.648;23.332;2022-12-15T02:02:38;93657.78;;;0.63;100.00
65832;BME280;52593;42.648;23.332;2022-12-15T02:05:05;93652.03;;;0.49;100.00
65832;BME280;52593;42.648;23.332;2022-12-15T02:07:31;93637.06;;;0.50;100.00
65832;BME280;52593;42.648;23.332;2022-12-15T02:09:59;93650.56;;;0.37;100.00
65832;BME280;52593;42.648;23.332;2022-12-15T02:12:47;93631.41;;;0.45;100.00
65832;BME280;52593;42.648;23.332;2022-12-15T02:20:42;93613.44;;;0.58;100.00
65832;BME280;52593;42.648;23.332;2022-12-15T02:32:01;93581.41;;;0.63;100.00
65832;BME280;52593;42.648;23.332;2022-12-15T02:37:00;93606.34;;;0.41;100.00
65832;BME280;52593;42.648;23.332;2022-12-15T02:39:28;93615.19;;;0.40;100.00
65832;BME280;52593;42.648;23.332;2022-12-15T02:41:53;93596.41;;;0.34;100.00
65832;BME280;52593;42.648;23.332;2022-12-15T02:44:29;93610.72;;;0.22;100.00
65832;BME280;52593;42.648;23.332;2022-12-15T02:47:16;93622.81;;;0.05;100.00
65832;BME280;52593;42.648;23.332;2022-12-15T02:53:20;93650.66;;;0.08;100.00
65832;BME280;52593;42.648;23.332;2022-12-15T03:01:14;93654.91;;;0.09;100.00
65832;BME280;52593;42.648;23.332;2022-12-15T03:03:41;93660.41;;;0.25;100.00
65832;BME280;52593;42.648;23.332;2022-12-15T03:06:08;93663.47;;;0.21;100.00
65832;BME280;52593;42.648;23.332;2022-12-15T03:08:33;93657.97;;;0.14;100.00
65832;BME280;52593;42.648;23.332;2022-12-15T03:11:00;93655.81;;;0.27;100.00
65832;BME280;52593;42.648;23.332;2022-12-15T03:13:25;93650.19;;;0.22;100.00
65832;BME280;52593;42.648;23.332;2022-12-15T03:15:51;93640.63;;;0.21;100.00
65832;BME280;52593;42.648;23.332;2022-12-15T03:18:18;93652.94;;;0.21;100.00
65832;BME280;52593;42.648;23.332;2022-12-15T03:20:44;93644.09;;;0.22;100.00
65832;BME280;52593;42.648;23.332;2022-12-15T03:23:09;93657.69;;;0.17;100.00
65832;BME280;52593;42.648;23.332;2022-12-15T03:25:34;93647.72;;;0.11;100.00
65832;BME280;52593;42.648;23.332;2022-12-15T03:28:00;93646.28;;;0.26;100.00
65832;BME280;52593;42.648;23.332;2022-12-15T03:30:25;93651.28;;;0.20;100.00
65832;BME280;52593;42.648;23.332;2022-12-15T03:32:51;93658.63;;;0.16;100.00
65832;BME280;52593;42.648;23.332;2022-12-15T03:35:16;93651.56;;;0.26;100.00
65832;BME280;52593;42.648;23.332;2022-12-15T03:37:41;93641.63;;;0.10;100.00
65832;BME280;52593;42.648;23.332;2022-12-15T03:40:07;93646.34;;;0.07;100.00
65832;BME280;52593;42.648;23.332;2022-12-15T03:42:33;93647.72;;;0.11;100.00
65832;BME280;52593;42.648;23.332;2022-12-15T03:45:16;93647.97;;;0.17;100.00
65832;BME280;52593;42.648;23.332;2022-12-15T03:47:42;93655.19;;;0.15;100.00
65832;BME280;52593;42.648;23.332;2022-12-15T03:50:09;93665.53;;;0.27;100.00
65832;BME280;52593;42.648;23.332;2022-12-15T03:52:35;93678.50;;;0.38;100.00
65832;BME280;52593;42.648;23.332;2022-12-15T03:55:02;93670.22;;;0.33;100.00
65832;BME280;52593;42.648;23.332;2022-12-15T03:57:27;93681.97;;;0.76;100.00
65832;BME280;52593;42.648;23.332;2022-12-15T03:59:52;93682.56;;;0.32;100.00
65832;BME280;52593;42.648;23.332;2022-12-15T04:02:18;93688.25;;;0.28;100.00
65832;BME280;52593;42.648;23.332;2022-12-15T04:04:43;93687.72;;;0.14;100.00
65832;BME280;52593;42.648;23.332;2022-12-15T04:07:09;93702.34;;;0.37;100.00
65832;BME280;52593;42.648;23.332;2022-12-15T04:09:35;93701.50;;;0.36;100.00
65832;BME280;52593;42.648;23.332;2022-12-15T04:12:00;93704.44;;;0.33;100.00
65832;BME280;52593;42.648;23.332;2022-12-15T04:14:28;93703.91;;;0.20;100.00
65832;BME280;52593;42.648;23.332;2022-12-15T04:16:54;93715.25;;;0.30;100.00
65832;BME280;52593;42.648;23.332;2022-12-15T04:19:19;93724.38;;;0.35;100.00
65832;BME280;52593;42.648;23.332;2022-12-15T04:22:03;93718.97;;;0.37;100.00
65832;BME280;52593;42.648;23.332;2022-12-15T04:24:28;93710.56;;;0.14;100.00
65832;BME280;52593;42.648;23.332;2022-12-15T04:27:13;93709.06;;;0.59;100.00
65832;BME280;52593;42.648;23.332;2022-12-15T04:29:56;93714.88;;;0.62;100.00
65832;BME280;52593;42.648;23.332;2022-12-15T04:32:40;93713.34;;;0.60;100.00
65832;BME280;52593;42.648;23.332;2022-12-15T04:35:24;93711.22;;;0.83;100.00
65832;BME280;52593;42.648;23.332;2022-12-15T04:38:08;93686.53;;;0.46;100.00
65832;BME280;52593;42.648;23.332;2022-12-15T04:40:52;93690.84;;;0.38;100.00
65832;BME280;52593;42.648;23.332;2022-12-15T04:43:36;93684.47;;;0.40;100.00
65832;BME280;52593;42.648;23.332;2022-12-15T04:46:20;93671.19;;;0.32;100.00
65832;BME280;52593;42.648;23.332;2022-12-15T04:49:04;93670.16;;;0.52;100.00
65832;BME280;52593;42.648;23.332;2022-12-15T04:51:48;93682.38;;;0.44;100.00
65832;BME280;52593;42.648;23.332;2022-12-15T04:54:32;93657.38;;;0.58;100.00
65832;BME280;52593;42.648;23.332;2022-12-15T04:57:16;93684.06;;;0.35;100.00
65832;BME280;52593;42.648;23.332;2022-12-15T04:59:59;93690.66;;;0.49;100.00
65832;BME280;52593;42.648;23.332;2022-12-15T05:02:43;93711.22;;;0.26;100.00
65832;BME280;52593;42.648;23.332;2022-12-15T05:05:27;93738.22;;;0.38;100.00
65832;BME280;52593;42.648;23.332;2022-12-15T05:08:11;93738.50;;;0.34;100.00
65832;BME280;52593;42.648;23.332;2022-12-15T05:10:58;93726.06;;;0.17;100.00
65832;BME280;52593;42.648;23.332;2022-12-15T05:13:42;93744.16;;;0.40;100.00
65832;BME280;52593;42.648;23.332;2022-12-15T05:16:26;93750.69;;;0.26;100.00
65832;BME280;52593;42.648;23.332;2022-12-15T05:19:10;93766.78;;;0.32;100.00
65832;BME280;52593;42.648;23.332;2022-12-15T05:21:54;93774.19;;;0.57;100.00
65832;BME280;52593;42.648;23.332;2022-12-15T05:24:38;93784.19;;;0.33;100.00
65832;BME280;52593;42.648;23.332;2022-12-15T05:27:22;93796.69;;;0.31;100.00
65832;BME280;52593;42.648;23.332;2022-12-15T05:30:06;93795.00;;;0.30;100.00
65832;BME280;52593;42.648;23.332;2022-12-15T05:32:50;93792.78;;;0.26;100.00
65832;BME280;52593;42.648;23.332;2022-12-15T05:35:15;93795.84;;;0.41;100.00
65832;BME280;52593;42.648;23.332;2022-12-15T05:37:41;93813.97;;;0.24;100.00
65832;BME280;52593;42.648;23.332;2022-12-15T05:40:07;93821.06;;;0.24;100.00
65832;BME280;52593;42.648;23.332;2022-12-15T05:42:32;93827.56;;;0.29;100.00
65832;BME280;52593;42.648;23.332;2022-12-15T05:44:58;93837.66;;;0.24;100.00
65832;BME280;52593;42.648;23.332;2022-12-15T05:47:23;93836.81;;;0.33;100.00
65832;BME280;52593;42.648;23.332;2022-12-15T05:49:49;93854.28;;;0.34;100.00
65832;BME280;52593;42.648;23.332;2022-12-15T05:52:15;93849.88;;;0.15;100.00
65832;BME280;52593;42.648;23.332;2022-12-15T05:54:41;93861.22;;;0.16;100.00
65832;BME280;52593;42.648;23.332;2022-12-15T05:57:06;93867.56;;;0.13;100.00
65832;BME280;52593;42.648;23.332;2022-12-15T05:59:32;93882.41;;;0.24;100.00
65832;BME280;52593;42.648;23.332;2022-12-15T06:01:57;93885.84;;;0.15;100.00
65832;BME280;52593;42.648;23.332;2022-12-15T06:04:23;93901.34;;;0.18;100.00
65832;BME280;52593;42.648;23.332;2022-12-15T06:06:48;93908.03;;;0.22;100.00
65832;BME280;52593;42.648;23.332;2022-12-15T06:09:14;93905.81;;;0.17;100.00
65832;BME280;52593;42.648;23.332;2022-12-15T06:11:39;93901.22;;;0.20;100.00
65832;BME280;52593;42.648;23.332;2022-12-15T06:14:05;93911.34;;;0.24;100.00
65832;BME280;52593;42.648;23.332;2022-12-15T06:16:30;93910.53;;;0.43;100.00
65832;BME280;52593;42.648;23.332;2022-12-15T06:18:58;93912.88;;;0.17;100.00
65832;BME280;52593;42.648;23.332;2022-12-15T06:21:27;93911.78;;;0.29;100.00
65832;BME280;52593;42.648;23.332;2022-12-15T06:23:54;93918.00;;;0.28;100.00
65832;BME280;52593;42.648;23.332;2022-12-15T06:26:23;93909.03;;;2.84;100.00
65832;BME280;52593;42.648;23.332;2022-12-15T06:28:50;93927.44;;;0.70;100.00
65832;BME280;52593;42.648;23.332;2022-12-15T06:31:18;93920.94;;;0.55;100.00
65832;BME280;52593;42.648;23.332;2022-12-15T06:33:46;93923.00;;;0.51;100.00
65832;BME280;52593;42.648;23.332;2022-12-15T06:36:13;93922.44;;;0.67;100.00
65832;BME280;52593;42.648;23.332;2022-12-15T06:38:39;93939.63;;;0.61;100.00
65832;BME280;52593;42.648;23.332;2022-12-15T06:41:09;93948.06;;;0.55;100.00
65832;BME280;52593;42.648;23.332;2022-12-15T06:43:35;93957.25;;;0.80;100.00
65832;BME280;52593;42.648;23.332;2022-12-15T06:46:01;93948.75;;;0.96;100.00
65832;BME280;52593;42.648;23.332;2022-12-15T06:48:27;93947.53;;;0.81;100.00
65832;BME280;52593;42.648;23.332;2022-12-15T06:50:53;93951.69;;;0.93;100.00
65832;BME280;52593;42.648;23.332;2022-12-15T06:53:20;93950.69;;;1.04;100.00
65832;BME280;52593;42.648;23.332;2022-12-15T06:55:47;93948.63;;;0.88;100.00
65832;BME280;52593;42.648;23.332;2022-12-15T06:58:13;93950.69;;;1.04;100.00
65832;BME280;52593;42.648;23.332;2022-12-15T07:00:40;93953.59;;;1.20;100.00
65832;BME280;52593;42.648;23.332;2022-12-15T07:03:09;93957.19;;;1.29;100.00
65832;BME280;52593;42.648;23.332;2022-12-15T07:05:37;93960.25;;;1.24;100.00
65832;BME280;52593;42.648;23.332;2022-12-15T07:08:04;93966.75;;;1.30;100.00
65832;BME280;52593;42.648;23.332;2022-12-15T07:10:29;93968.53;;;1.49;100.00
65832;BME280;52593;42.648;23.332;2022-12-15T07:12:55;93975.66;;;1.29;100.00
65832;BME280;52593;42.648;23.332;2022-12-15T07:15:21;93977.53;;;1.47;100.00
65832;BME280;52593;42.648;23.332;2022-12-15T07:17:47;93985.97;;;1.60;100.00
65832;BME280;52593;42.648;23.332;2022-12-15T07:20:12;93979.59;;;1.53;100.00
65832;BME280;52593;42.648;23.332;2022-12-15T07:22:38;93993.38;;;1.37;100.00
65832;BME280;52593;42.648;23.332;2022-12-15T07:25:04;93997.81;;;1.46;100.00
65832;BME280;52593;42.648;23.332;2022-12-15T07:27:29;93993.06;;;1.50;100.00
65832;BME280;52593;42.648;23.332;2022-12-15T07:29:54;94010.16;;;1.36;100.00
65832;BME280;52593;42.648;23.332;2022-12-15T07:32:20;94006.41;;;1.48;100.00
65832;BME280;52593;42.648;23.332;2022-12-15T07:34:45;94007.97;;;1.41;100.00
65832;BME280;52593;42.648;23.332;2022-12-15T07:37:11;94017.19;;;1.65;100.00
65832;BME280;52593;42.648;23.332;2022-12-15T07:39:36;94003.31;;;5.26;100.00
65832;BME280;52593;42.648;23.332;2022-12-15T07:42:02;94011.97;;;4.69;100.00
65832;BME280;52593;42.648;23.332;2022-12-15T07:44:30;94021.97;;;3.00;100.00
65832;BME280;52593;42.648;23.332;2022-12-15T07:46:56;94020.38;;;2.43;100.00
65832;BME280;52593;42.648;23.332;2022-12-15T07:49:21;94021.22;;;2.44;100.00
65832;BME280;52593;42.648;23.332;2022-12-15T07:51:46;94014.25;;;5.15;99.66
65832;BME280;52593;42.648;23.332;2022-12-15T07:54:13;94008.31;;;5.38;89.14
65832;BME280;52593;42.648;23.332;2022-12-15T07:56:39;94017.25;;;4.61;90.52
65832;BME280;52593;42.648;23.332;2022-12-15T07:59:05;94028.16;;;5.25;91.27
65832;BME280;52593;42.648;23.332;2022-12-15T08:01:31;94031.47;;;5.03;87.93
65832;BME280;52593;42.648;23.332;2022-12-15T08:03:57;94034.94;;;3.91;94.16
65832;BME280;52593;42.648;23.332;2022-12-15T08:06:22;94047.47;;;4.07;94.46
65832;BME280;52593;42.648;23.332;2022-12-15T08:08:49;94058.41;;;2.78;100.00
65832;BME280;52593;42.648;23.332;2022-12-15T08:11:14;94062.91;;;2.96;100.00
65832;BME280;52593;42.648;23.332;2022-12-15T08:13:41;94052.38;;;2.86;100.00
65832;BME280;52593;42.648;23.332;2022-12-15T08:16:07;94058.41;;;2.78;100.00
65832;BME280;52593;42.648;23.332;2022-12-15T08:18:33;94058.31;;;2.70;100.00
65832;BME280;52593;42.648;23.332;2022-12-15T08:21:05;94060.66;;;2.73;100.00
65832;BME280;52593;42.648;23.332;2022-12-15T08:23:32;94057.59;;;2.78;100.00
65832;BME280;52593;42.648;23.332;2022-12-15T08:28:27;94056.78;;;3.13;100.00
65832;BME280;52593;42.648;23.332;2022-12-15T08:30:53;94067.66;;;3.10;100.00
65832;BME280;52593;42.648;23.332;2022-12-15T08:33:18;94062.38;;;3.10;100.00
65832;BME280;52593;42.648;23.332;2022-12-15T08:35:43;94080.31;;;2.89;100.00
65832;BME280;52593;42.648;23.332;2022-12-15T08:38:09;94076.72;;;2.90;100.00
65832;BME280;52593;42.648;23.332;2022-12-15T08:40:34;94083.66;;;2.91;100.00
65832;BME280;52593;42.648;23.332;2022-12-15T08:42:59;94086.47;;;3.07;100.00
65832;BME280;52593;42.648;23.332;2022-12-15T08:45:25;94086.53;;;2.97;100.00
65832;BME280;52593;42.648;23.332;2022-12-15T08:47:50;94084.59;;;3.17;100.00
65832;BME280;52593;42.648;23.332;2022-12-15T08:50:16;94086.84;;;3.12;100.00
65832;BME280;52593;42.648;23.332;2022-12-15T08:52:41;94090.22;;;3.04;100.00
65832;BME280;52593;42.648;23.332;2022-12-15T08:55:08;94090.63;;;3.28;100.00
65832;BME280;52593;42.648;23.332;2022-12-15T08:57:35;94081.44;;;3.32;100.00
65832;BME280;52593;42.648;23.332;2022-12-15T09:00:02;94087.38;;;3.52;100.00
65832;BME280;52593;42.648;23.332;2022-12-15T09:02:29;94080.72;;;3.66;100.00
65832;BME280;52593;42.648;23.332;2022-12-15T09:04:54;94076.00;;;3.51;100.00
65832;BME280;52593;42.648;23.332;2022-12-15T09:07:19;94078.69;;;3.60;100.00
65832;BME280;52593;42.648;23.332;2022-12-15T09:09:45;94070.88;;;3.94;100.00
65832;BME280;52593;42.648;23.332;2022-12-15T09:12:11;94064.44;;;4.23;100.00
65832;BME280;52593;42.648;23.332;2022-12-15T09:14:36;94073.94;;;4.07;100.00
65832;BME280;52593;42.648;23.332;2022-12-15T09:17:02;94058.84;;;4.34;100.00
65832;BME280;52593;42.648;23.332;2022-12-15T09:19:27;94074.94;;;4.41;100.00
65832;BME280;52593;42.648;23.332;2022-12-15T09:21:53;94068.00;;;4.40;97.24
65832;BME280;52593;42.648;23.332;2022-12-15T09:24:18;94072.97;;;4.43;98.87
65832;BME280;52593;42.648;23.332;2022-12-15T09:26:44;94075.19;;;4.21;100.00
65832;BME280;52593;42.648;23.332;2022-12-15T09:29:10;94068.72;;;4.24;100.00
65832;BME280;52593;42.648;23.332;2022-12-15T09:31:37;94078.19;;;4.26;99.81
65832;BME280;52593;42.648;23.332;2022-12-15T09:34:03;94080.72;;;4.36;98.68
65832;BME280;52593;42.648;23.332;2022-12-15T09:36:30;94080.47;;;4.56;99.54
65832;BME280;52593;42.648;23.332;2022-12-15T09:38:57;94085.63;;;4.57;99.20
65832;BME280;52593;42.648;23.332;2022-12-15T09:41:25;94086.44;;;4.58;99.69
65832;BME280;52593;42.648;23.332;2022-12-15T09:44:06;94081.31;;;4.56;99.33
65832;BME280;52593;42.648;23.332;2022-12-15T09:46:49;94087.47;;;4.57;99.33
65832;BME280;52593;42.648;23.332;2022-12-15T09:52:04;94090.56;;;4.52;98.15
65832;BME280;52593;42.648;23.332;2022-12-15T09:54:32;94084.50;;;4.60;98.04
65832;BME280;52593;42.648;23.332;2022-12-15T09:57:09;94092.03;;;4.46;98.18
65832;BME280;52593;42.648;23.332;2022-12-15T09:59:57;94097.91;;;4.58;99.71
65832;BME280;52593;42.648;23.332;2022-12-15T10:07:59;94072.72;;;4.28;100.00
65832;BME280;52593;42.648;23.332;2022-12-15T10:10:46;94079.72;;;4.37;100.00
65832;BME280;52593;42.648;23.332;2022-12-15T10:13:34;94080.16;;;4.59;100.00
65832;BME280;52593;42.648;23.332;2022-12-15T10:16:07;94078.06;;;4.62;100.00
65832;BME280;52593;42.648;23.332;2022-12-15T10:18:43;94073.97;;;4.85;100.00
65832;BME280;52593;42.648;23.332;2022-12-15T10:21:11;94081.59;;;4.79;100.00
65832;BME280;52593;42.648;23.332;2022-12-15T10:23:39;94072.53;;;4.90;100.00
65832;BME280;52593;42.648;23.332;2022-12-15T10:26:18;94089.63;;;4.61;100.00
65832;BME280;52593;42.648;23.332;2022-12-15T10:37:03;94094.56;;;4.99;100.00
65832;BME280;52593;42.648;23.332;2022-12-15T10:39:40;94102.16;;;4.86;100.00
65832;BME280;52593;42.648;23.332;2022-12-15T10:44:40;94097.44;;;4.71;100.00
65832;BME280;52593;42.648;23.332;2022-12-15T10:47:16;94098.88;;;4.92;100.00
65832;BME280;52593;42.648;23.332;2022-12-15T10:49:41;94083.44;;;4.87;100.00
65832;BME280;52593;42.648;23.332;2022-12-15T10:52:18;94090.28;;;4.98;100.00
65832;BME280;52593;42.648;23.332;2022-12-15T10:54:46;94099.31;;;4.79;99.92
65832;BME280;52593;42.648;23.332;2022-12-15T10:57:19;94099.59;;;5.18;100.00
65832;BME280;52593;42.648;23.332;2022-12-15T10:59:45;94102.75;;;5.14;99.78
65832;BME280;52593;42.648;23.332;2022-12-15T11:05:00;94100.09;;;5.14;99.53
65832;BME280;52593;42.648;23.332;2022-12-15T11:07:37;94095.97;;;5.28;98.97
65832;BME280;52593;42.648;23.332;2022-12-15T11:10:33;94095.13;;;5.11;100.00
65832;BME280;52593;42.648;23.332;2022-12-15T11:13:21;94097.13;;;5.25;99.40
65832;BME280;52593;42.648;23.332;2022-12-15T11:15:53;94091.81;;;5.09;99.22
65832;BME280;52593;42.648;23.332;2022-12-15T11:18:26;94097.59;;;5.04;99.74
65832;BME280;52593;42.648;23.332;2022-12-15T11:21:04;94097.59;;;5.12;100.00
65832;BME280;52593;42.648;23.332;2022-12-15T11:23:53;94094.78;;;5.14;100.00
65832;BME280;52593;42.648;23.332;2022-12-15T11:26:45;94092.66;;;5.26;99.92
65832;BME280;52593;42.648;23.332;2022-12-15T11:31:41;94101.28;;;5.28;99.33
65832;BME280;52593;42.648;23.332;2022-12-15T11:34:18;94101.78;;;5.23;99.45
65832;BME280;52593;42.648;23.332;2022-12-15T11:39:24;94095.88;;;5.54;99.00
65832;BME280;52593;42.648;23.332;2022-12-15T11:47:05;94102.84;;;5.88;96.33
65832;BME280;52593;42.648;23.332;2022-12-15T11:49:47;94101.69;;;5.90;96.32
65832;BME280;52593;42.648;23.332;2022-12-15T11:55:25;94102.41;;;6.01;96.31
65832;BME280;52593;42.648;23.332;2022-12-15T12:00:34;94111.66;;;5.88;97.76
65832;BME280;52593;42.648;23.332;2022-12-15T12:11:17;94120.97;;;6.09;95.21
65832;BME280;52593;42.648;23.332;2022-12-15T12:14:16;94125.63;;;6.23;94.60
65832;BME280;52593;42.648;23.332;2022-12-15T12:17:01;94113.75;;;6.67;90.82
65832;BME280;52593;42.648;23.332;2022-12-15T12:19:41;94122.91;;;6.56;95.31
65832;BME280;52593;42.648;23.332;2022-12-15T12:24:44;94125.16;;;6.84;92.29
65832;BME280;52593;42.648;23.332;2022-12-15T12:29:58;94130.63;;;6.27;95.64
65832;BME280;52593;42.648;23.332;2022-12-15T12:32:48;94136.91;;;6.34;97.58
65832;BME280;52593;42.648;23.332;2022-12-15T12:35:36;94145.38;;;6.29;95.28
65832;BME280;52593;42.648;23.332;2022-12-15T12:38:05;94143.53;;;7.10;94.65
65832;BME280;52593;42.648;23.332;2022-12-15T12:43:10;94152.53;;;7.01;95.16
65832;BME280;52593;42.648;23.332;2022-12-15T12:45:50;94157.50;;;6.15;94.53
65832;BME280;52593;42.648;23.332;2022-12-15T12:51:11;94157.19;;;6.10;96.26
65832;BME280;52593;42.648;23.332;2022-12-15T12:53:38;94155.34;;;6.35;96.20
65832;BME280;52593;42.648;23.332;2022-12-15T12:56:03;94153.69;;;6.01;98.65
65832;BME280;52593;42.648;23.332;2022-12-15T13:01:16;94156.34;;;6.26;96.21
65832;BME280;52593;42.648;23.332;2022-12-15T13:03:42;94163.31;;;6.35;96.88
65832;BME280;52593;42.648;23.332;2022-12-15T13:12:03;94167.63;;;6.12;98.11
65832;BME280;52593;42.648;23.332;2022-12-15T13:14:30;94169.47;;;6.36;97.41
65832;BME280;52593;42.648;23.332;2022-12-15T13:17:09;94170.13;;;6.13;99.24
65832;BME280;52593;42.648;23.332;2022-12-15T13:20:06;94179.06;;;5.96;100.00
65832;BME280;52593;42.648;23.332;2022-12-15T13:22:36;94175.53;;;5.79;100.00
65832;BME280;52593;42.648;23.332;2022-12-15T13:27:52;94177.03;;;5.89;100.00
65832;BME280;52593;42.648;23.332;2022-12-15T13:30:22;94186.19;;;5.95;100.00
65832;BME280;52593;42.648;23.332;2022-12-15T13:32:52;94177.09;;;5.98;99.56
65832;BME280;52593;42.648;23.332;2022-12-15T13:35:29;94186.63;;;5.74;100.00
65832;BME280;52593;42.648;23.332;2022-12-15T13:38:00;94179.53;;;5.75;100.00
65832;BME280;52593;42.648;23.332;2022-12-15T13:51:40;94200.53;;;5.51;100.00
65832;BME280;52593;42.648;23.332;2022-12-15T13:54:20;94200.06;;;5.64;100.00
65832;BME280;52593;42.648;23.332;2022-12-15T13:57:10;94205.81;;;5.43;100.00
65832;BME280;52593;42.648;23.332;2022-12-15T14:05:25;94215.66;;;5.59;100.00
65832;BME280;52593;42.648;23.332;2022-12-15T14:13:26;94229.34;;;5.38;100.00
65832;BME280;52593;42.648;23.332;2022-12-15T14:18:38;94229.59;;;6.45;96.68
65832;BME280;52593;42.648;23.332;2022-12-15T14:21:06;94231.41;;;6.28;97.44
65832;BME280;52593;42.648;23.332;2022-12-15T14:23:40;94242.19;;;6.02;99.28
65832;BME280;52593;42.648;23.332;2022-12-15T14:26:09;94233.16;;;5.95;99.60
65832;BME280;52593;42.648;23.332;2022-12-15T14:28:38;94245.91;;;5.75;100.00
65832;BME280;52593;42.648;23.332;2022-12-15T14:31:08;94244.22;;;5.65;100.00
65832;BME280;52593;42.648;23.332;2022-12-15T14:33:38;94238.53;;;5.60;100.00
65832;BME280;52593;42.648;23.332;2022-12-15T14:36:07;94245.09;;;5.40;100.00
65832;BME280;52593;42.648;23.332;2022-12-15T14:38:42;94249.13;;;5.52;100.00
65832;BME280;52593;42.648;23.332;2022-12-15T14:41:17;94260.03;;;5.41;100.00
65832;BME280;52593;42.648;23.332;2022-12-15T14:43:44;94265.38;;;5.49;100.00
65832;BME280;52593;42.648;23.332;2022-12-15T14:46:14;94277.81;;;5.22;100.00
65832;BME280;52593;42.648;23.332;2022-12-15T14:48:53;94261.41;;;5.18;100.00
65832;BME280;52593;42.648;23.332;2022-12-15T14:51:20;94276.75;;;5.07;100.00
65832;BME280;52593;42.648;23.332;2022-12-15T14:53:51;94270.44;;;4.99;100.00
65832;BME280;52593;42.648;23.332;2022-12-15T14:58:42;94282.28;;;4.87;100.00
65832;BME280;52593;42.648;23.332;2022-12-15T15:01:25;94276.13;;;4.87;100.00
65832;BME280;52593;42.648;23.332;2022-12-15T15:04:00;94292.41;;;4.92;100.00
65832;BME280;52593;42.648;23.332;2022-12-15T15:06:32;94265.47;;;4.78;100.00
65832;BME280;52593;42.648;23.332;2022-12-15T15:09:15;94298.38;;;4.68;100.00
65832;BME280;52593;42.648;23.332;2022-12-15T15:11:43;94277.78;;;4.61;100.00
65832;BME280;52593;42.648;23.332;2022-12-15T15:14:32;94301.38;;;4.73;100.00
65832;BME280;52593;42.648;23.332;2022-12-15T15:19:36;94299.03;;;4.70;100.00
65832;BME280;52593;42.648;23.332;2022-12-15T15:22:03;94310.84;;;4.75;100.00
65832;BME280;52593;42.648;23.332;2022-12-15T15:24:33;94299.88;;;4.70;100.00
65832;BME280;52593;42.648;23.332;2022-12-15T15:27:38;94320.22;;;4.70;100.00